Time;durP1;ratioP1;P1;durP2;ratioP2;P2;SDS_P1;SDS_P2;PMS_P1;PMS_P2;Temp;Humidity;BMP_temperature;BMP_pressure;BME280_temperature;BME280_humidity;BME280_pressure;Samples;Min_cycle;Max_cycle;Signal;HPM_P1;HPM_P2
2023/03/30 00:01:28;;;;;;;20.83;10.23;;;;;;;8.40;100.00;100256.03;6183090;27;20035;-71
2023/03/30 00:04:25;;;;;;;19.27;10.57;;;;;;;8.40;100.00;100256.03;6173494;27;20043;-70
2023/03/30 00:07:21;;;;;;;23.67;11.38;;;;;;;8.35;100.00;100246.69;6171645;28;20039;-72
2023/03/30 00:10:18;;;;;;;22.23;10.57;;;;;;;8.33;100.00;100238.09;6176095;27;20445;-71
2023/03/30 00:13:13;;;;;;;23.35;12.50;;;;;;;8.36;100.00;100231.69;6191403;27;20315;-71
2023/03/30 00:16:11;;;;;;;21.60;10.90;;;;;;;8.27;100.00;100217.53;6195050;27;20027;-70
2023/03/30 00:19:07;;;;;;;20.70;11.32;;;;;;;8.34;100.00;100234.47;6182324;27;20058;-71
2023/03/30 00:22:04;;;;;;;20.23;10.90;;;;;;;8.33;100.00;100240.72;6196327;27;20027;-70
2023/03/30 00:24:59;;;;;;;23.85;10.43;;;;;;;8.29;100.00;100241.16;6180823;27;20525;-70
2023/03/30 00:27:54;;;;;;;18.47;10.93;;;;;;;8.31;100.00;100245.34;6171495;28;20032;-71
2023/03/30 00:30:51;;;;;;;23.20;10.37;;;;;;;8.34;100.00;100229.16;6182106;27;20041;-70
2023/03/30 00:33:46;;;;;;;22.65;10.68;;;;;;;8.29;100.00;100212.09;6185758;27;20306;-71
2023/03/30 00:36:42;;;;;;;22.70;10.97;;;;;;;8.32;100.00;100223.22;6175039;27;20040;-71
2023/03/30 00:39:37;;;;;;;22.30;10.57;;;;;;;8.27;100.00;100214.06;6173082;27;20035;-71
2023/03/30 00:42:36;;;;;;;21.10;10.70;;;;;;;8.26;100.00;100205.25;6192769;27;20043;-71
2023/03/30 00:45:35;;;;;;;20.10;9.90;;;;;;;8.17;100.00;100195.56;6176588;27;20046;-71
2023/03/30 00:48:33;;;;;;;22.00;11.07;;;;;;;8.17;100.00;100194.72;6171662;27;20028;-71
2023/03/30 00:51:28;;;;;;;18.33;10.02;;;;;;;8.13;100.00;100178.34;6152563;28;20043;-71
2023/03/30 00:54:24;;;;;;;18.55;10.45;;;;;;;8.21;100.00;100189.00;6178042;27;20152;-71
2023/03/30 00:57:23;;;;;;;25.13;11.95;;;;;;;8.14;100.00;100166.81;6171064;27;20035;-70
2023/03/30 01:00:19;;;;;;;21.85;10.43;;;;;;;8.19;100.00;100175.13;6173070;27;20066;-71
2023/03/30 01:03:36;;;;;;;19.48;10.40;;;;;;;8.06;100.00;100150.84;6178649;27;20039;-71
2023/03/30 01:06:33;;;;;;;22.33;11.02;;;;;;;8.02;100.00;100145.97;6176947;27;20113;-69
2023/03/30 01:09:28;;;;;;;20.55;10.48;;;;;;;8.09;100.00;100157.66;6171172;27;20043;-73
2023/03/30 01:12:24;;;;;;;20.42;10.18;;;;;;;8.01;100.00;100142.53;6170356;28;20518;-72
2023/03/30 01:15:20;;;;;;;21.42;9.95;;;;;;;8.03;100.00;100145.84;6167520;27;20495;-72
2023/03/30 01:18:43;;;;;;;20.77;9.73;;;;;;;8.01;100.00;100149.63;6176660;27;20391;-71
2023/03/30 01:22:03;;;;;;;18.27;9.55;;;;;;;8.00;100.00;100156.69;6152255;28;20036;-71
2023/03/30 01:25:14;;;;;;;19.45;9.32;;;;;;;7.98;100.00;100149.91;6163901;27;20106;-72
2023/03/30 01:28:52;;;;;;;18.80;9.63;;;;;;;7.91;100.00;100131.16;6176930;27;20034;-72
2023/03/30 01:32:19;;;;;;;19.80;10.32;;;;;;;8.01;100.00;100147.81;6163032;27;20055;-72
2023/03/30 01:35:30;;;;;;;19.63;9.68;;;;;;;7.90;100.00;100128.66;6179150;28;20039;-72
2023/03/30 01:38:43;;;;;;;18.98;9.73;;;;;;;8.03;100.00;100142.38;6151447;28;20035;-71
2023/03/30 01:41:57;;;;;;;18.73;8.48;;;;;;;7.97;100.00;100119.19;6183374;28;20066;-71
2023/03/30 01:45:00;;;;;;;17.95;9.85;;;;;;;8.04;100.00;100131.69;6180317;28;20035;-71
2023/03/30 01:48:02;;;;;;;20.35;9.55;;;;;;;7.91;100.00;100110.03;6194582;28;20119;-71
2023/03/30 01:51:03;;;;;;;18.90;8.60;;;;;;;7.90;100.00;100107.56;6176330;28;20083;-72
2023/03/30 01:54:05;;;;;;;22.02;9.68;;;;;;;7.85;100.00;100094.78;6189589;28;20031;-72
2023/03/30 01:57:08;;;;;;;15.48;8.32;;;;;;;7.89;100.00;100098.78;6151848;28;20468;-72
2023/03/30 02:00:12;;;;;;;15.85;7.60;;;;;;;7.80;100.00;100083.81;6158256;28;20483;-72
2023/03/30 02:03:18;;;;;;;18.80;8.45;;;;;;;7.92;100.00;100084.47;6178374;28;20030;-71
2023/03/30 02:06:28;;;;;;;18.75;8.55;;;;;;;7.85;100.00;100068.41;6171483;28;20042;-73
2023/03/30 02:09:25;;;;;;;19.35;9.00;;;;;;;7.94;100.00;100078.06;6151733;28;20040;-71
2023/03/30 02:12:21;;;;;;;18.42;7.78;;;;;;;7.96;100.00;100070.84;6164427;28;20430;-70
2023/03/30 02:15:17;;;;;;;17.42;8.07;;;;;;;8.06;100.00;100063.72;6170563;28;20036;-70
2023/03/30 02:18:13;;;;;;;16.02;8.15;;;;;;;8.01;100.00;100071.25;6203626;27;20027;-71
2023/03/30 02:21:08;;;;;;;18.35;7.95;;;;;;;7.92;100.00;100053.63;6186251;27;20476;-72
2023/03/30 02:24:06;;;;;;;15.38;7.28;;;;;;;8.05;100.00;100043.56;6177155;27;20034;-71
2023/03/30 02:27:02;;;;;;;16.15;6.70;;;;;;;8.10;100.00;100032.59;6198997;27;20034;-70
2023/03/30 02:29:57;;;;;;;15.07;6.70;;;;;;;8.11;100.00;100031.59;6169553;28;20045;-72
2023/03/30 02:32:55;;;;;;;14.70;6.63;;;;;;;8.07;100.00;100036.31;6174181;28;20040;-70
2023/03/30 02:36:14;;;;;;;15.77;7.30;;;;;;;8.15;100.00;100056.72;6188174;27;20027;-71
2023/03/30 02:39:21;;;;;;;14.63;5.70;;;;;;;8.27;100.00;100037.91;6155706;28;20084;-72
2023/03/30 02:42:25;;;;;;;;;;;;;;;8.55;100.00;100030.78;6186836;27;20039;-70
2023/03/30 02:45:38;;;;;;;9.93;4.40;;;;;;;8.85;100.00;100013.72;6165673;28;19912;-72
2023/03/30 02:48:53;;;;;;;8.95;4.32;;;;;;;9.13;100.00;100031.13;6155608;28;20507;-72
2023/03/30 02:51:53;;;;;;;9.13;4.20;;;;;;;9.28;100.00;100010.25;6154961;28;20047;-72
2023/03/30 02:55:13;;;;;;;6.00;3.38;;;;;;;9.41;100.00;100015.97;6159257;27;20041;-71
2023/03/30 02:58:17;;;;;;;7.68;3.80;;;;;;;9.46;100.00;99984.56;6189074;27;20077;-71
2023/03/30 03:01:18;;;;;;;6.85;2.80;;;;;;;9.63;100.00;99975.72;6164767;27;20042;-72
2023/03/30 03:04:14;;;;;;;;;;;;;;;9.67;100.00;99976.25;6181517;27;20484;-72
2023/03/30 03:07:11;;;;;;;13.30;4.50;;;;;;;9.57;100.00;99965.75;6155088;28;19955;-72
2023/03/30 03:10:06;;;;;;;9.27;4.00;;;;;;;9.67;100.00;99976.25;6154819;28;20042;-70
2023/03/30 03:13:02;;;;;;;9.38;4.40;;;;;;;9.70;100.00;99966.19;6172634;28;20040;-71
2023/03/30 03:15:57;;;;;;;9.60;4.13;;;;;;;9.84;100.00;99962.06;6190815;27;20027;-73
2023/03/30 03:18:52;;;;;;;8.73;4.20;;;;;;;9.99;100.00;99979.03;6197353;27;20273;-73
2023/03/30 03:21:48;;;;;;;6.63;2.97;;;;;;;9.98;100.00;99974.72;6180692;27;20118;-71
2023/03/30 03:24:43;;;;;;;8.23;3.20;;;;;;;9.95;100.00;99967.91;6183161;27;20039;-72
2023/03/30 03:27:38;;;;;;;6.38;2.88;;;;;;;10.08;100.00;99983.38;6172368;28;20046;-73
2023/03/30 03:30:34;;;;;;;5.43;2.83;;;;;;;10.12;100.00;99976.75;6171628;28;20039;-71
2023/03/30 03:33:32;;;;;;;6.50;2.70;;;;;;;10.15;99.45;99973.81;6171826;28;20036;-71
2023/03/30 03:36:44;;;;;;;10.93;2.92;;;;;;;10.22;99.38;99966.06;6170785;28;20101;-72
2023/03/30 03:39:40;;;;;;;6.17;2.67;;;;;;;10.19;99.07;99964.56;6107339;27;20060;-72
2023/03/30 03:42:36;;;;;;;6.95;2.75;;;;;;;10.19;98.76;99946.03;6099387;28;20029;-73
2023/03/30 03:45:32;;;;;;;10.60;3.13;;;;;;;10.28;98.75;99952.97;6088037;28;20116;-71
2023/03/30 03:48:28;;;;;;;6.30;2.83;;;;;;;10.36;97.93;99939.72;6098971;28;20025;-73
2023/03/30 03:51:23;;;;;;;5.63;2.50;;;;;;;10.36;97.31;99923.00;6078347;28;20041;-72
2023/03/30 03:54:18;;;;;;;7.40;2.60;;;;;;;10.45;96.87;99940.59;6077611;28;20025;-71
2023/03/30 03:57:14;;;;;;;7.77;3.27;;;;;;;10.38;96.70;99919.19;6075090;28;20121;-71
2023/03/30 04:00:16;;;;;;;7.18;2.78;;;;;;;10.37;96.61;99914.06;6074766;28;20466;-72
2023/03/30 04:03:12;;;;;;;7.53;2.78;;;;;;;10.47;96.31;99923.50;6068261;28;20033;-72
2023/03/30 04:06:08;;;;;;;4.60;2.10;;;;;;;10.43;95.75;99908.13;6093084;28;20500;-72
2023/03/30 04:09:03;;;;;;;4.57;2.42;;;;;;;10.54;95.19;99921.88;6098572;28;20033;-72
2023/03/30 04:11:58;;;;;;;8.97;2.87;;;;;;;10.63;94.53;99923.53;6098800;28;20036;-72
2023/03/30 04:14:54;;;;;;;5.53;2.57;;;;;;;10.70;93.58;99915.75;6081904;28;20492;-72
2023/03/30 04:17:56;;;;;;;6.53;2.40;;;;;;;10.84;92.41;99919.56;6084120;28;20475;-72
2023/03/30 04:20:51;;;;;;;6.05;2.20;;;;;;;10.85;91.57;99907.91;6074918;28;20303;-73
2023/03/30 04:23:47;;;;;;;7.43;2.53;;;;;;;10.84;91.87;99898.34;6085091;28;20090;-72
2023/03/30 04:26:47;;;;;;;5.70;2.50;;;;;;;11.03;90.17;99892.66;6079736;28;20116;-72
2023/03/30 04:29:43;;;;;;;5.10;2.28;;;;;;;11.13;88.87;99888.00;6089180;28;20045;-73
2023/03/30 04:32:40;;;;;;;8.60;2.42;;;;;;;11.24;88.07;99893.78;6086635;28;20033;-71
2023/03/30 04:35:35;;;;;;;6.45;2.05;;;;;;;11.09;88.12;99870.75;6084652;28;20147;-71
2023/03/30 04:38:30;;;;;;;6.07;2.33;;;;;;;11.16;88.48;99885.00;6100079;28;20036;-72
2023/03/30 04:41:33;;;;;;;4.77;2.10;;;;;;;11.20;87.74;99875.69;6109058;28;20036;-73
2023/03/30 04:44:29;;;;;;;5.00;2.28;;;;;;;11.27;87.09;99874.84;6097371;28;20116;-71
2023/03/30 04:47:25;;;;;;;4.57;1.77;;;;;;;11.17;87.19;99868.09;6096510;28;20040;-72
2023/03/30 04:50:21;;;;;;;7.93;2.05;;;;;;;11.17;86.87;99857.47;6097836;28;20100;-71
2023/03/30 04:53:17;;;;;;;3.45;1.63;;;;;;;11.18;87.48;99883.00;6079101;28;20099;-71
2023/03/30 04:56:12;;;;;;;5.82;1.88;;;;;;;11.10;88.07;99875.88;6073698;28;20064;-71
2023/03/30 04:59:08;;;;;;;5.57;2.37;;;;;;;11.18;87.29;99880.34;6083676;28;20145;-73
2023/03/30 05:02:03;;;;;;;5.60;2.05;;;;;;;11.12;87.56;99887.16;6077245;28;20371;-70
2023/03/30 05:04:58;;;;;;;3.30;1.63;;;;;;;10.99;88.37;99886.03;6072356;28;20474;-71
2023/03/30 05:07:53;;;;;;;4.57;1.90;;;;;;;11.03;87.86;99882.06;6086905;28;20041;-70
2023/03/30 05:10:49;;;;;;;3.83;1.90;;;;;;;11.09;87.99;99886.66;6097175;28;20059;-70
2023/03/30 05:13:44;;;;;;;7.30;2.13;;;;;;;11.02;87.65;99880.38;6075388;28;20501;-70
2023/03/30 05:16:39;;;;;;;8.60;2.03;;;;;;;11.01;87.63;99876.06;6075611;28;20032;-73
2023/03/30 05:19:35;;;;;;;5.57;2.10;;;;;;;10.99;87.67;99876.25;6076783;28;20048;-73
2023/03/30 05:22:30;;;;;;;5.88;2.10;;;;;;;10.84;87.77;99879.75;6072775;28;20033;-73
2023/03/30 05:25:26;;;;;;;4.37;1.60;;;;;;;10.89;87.88;99874.78;6059101;28;20436;-73
2023/03/30 05:28:21;;;;;;;4.13;1.80;;;;;;;10.95;87.90;99884.72;6089751;28;20287;-71
2023/03/30 05:31:18;;;;;;;6.05;1.95;;;;;;;10.84;87.67;99879.75;6096873;28;20441;-70
2023/03/30 05:34:13;;;;;;;6.18;1.98;;;;;;;10.89;88.09;99880.91;6072333;28;20083;-71
2023/03/30 05:37:09;;;;;;;6.30;2.20;;;;;;;10.82;87.97;99871.97;6085732;28;20037;-71
2023/03/30 05:40:08;;;;;;;6.15;2.13;;;;;;;11.04;87.52;99873.06;6080267;28;20504;-71
2023/03/30 05:43:03;;;;;;;5.60;1.80;;;;;;;11.15;86.61;99862.09;6081362;28;20608;-73
2023/03/30 05:45:59;;;;;;;6.03;2.53;;;;;;;11.27;85.95;99868.72;6096472;28;20032;-71
2023/03/30 05:48:55;;;;;;;3.72;1.58;;;;;;;11.41;84.21;99860.03;6076308;28;20044;-71
2023/03/30 05:51:50;;;;;;;3.90;1.40;;;;;;;11.54;83.45;99862.13;6072854;28;20399;-71
2023/03/30 05:54:46;;;;;;;3.60;1.48;;;;;;;11.58;83.60;99866.91;6076953;28;20371;-71
2023/03/30 05:57:41;;;;;;;3.17;1.67;;;;;;;11.41;84.28;99865.34;6076607;28;20037;-71
2023/03/30 06:00:36;;;;;;;3.07;1.40;;;;;;;11.58;82.80;99861.59;6085402;28;20041;-72
2023/03/30 06:03:32;;;;;;;5.10;1.83;;;;;;;11.68;83.57;99866.72;6083337;28;20076;-71
2023/03/30 06:06:27;;;;;;;9.20;2.20;;;;;;;11.78;82.16;99868.19;6084680;28;20401;-71
2023/03/30 06:09:24;;;;;;;5.80;1.93;;;;;;;11.71;82.93;99861.88;6090047;28;20037;-72
2023/03/30 06:12:19;;;;;;;3.60;1.42;;;;;;;11.76;82.27;99869.34;6076615;28;20494;-72
2023/03/30 06:15:15;;;;;;;7.05;1.92;;;;;;;11.83;81.83;99860.50;6076443;28;20041;-73
2023/03/30 06:18:10;;;;;;;3.40;1.50;;;;;;;11.91;81.12;99857.81;6087586;28;20110;-73
2023/03/30 06:21:07;;;;;;;2.67;1.30;;;;;;;11.99;81.15;99864.06;6081739;28;20283;-73
2023/03/30 06:24:02;;;;;;;7.85;2.20;;;;;;;11.98;81.25;99857.09;6086810;28;20459;-73
2023/03/30 06:26:58;;;;;;;5.53;1.65;;;;;;;12.10;81.13;99867.16;6100925;28;20039;-73
2023/03/30 06:29:53;;;;;;;5.55;1.60;;;;;;;12.18;79.92;99853.81;6091650;28;20040;-73
2023/03/30 06:32:48;;;;;;;3.40;1.43;;;;;;;12.29;79.75;99844.56;6076749;28;20482;-72
2023/03/30 06:35:48;;;;;;;4.67;1.40;;;;;;;12.36;79.08;99845.53;6075944;28;20032;-74
2023/03/30 06:38:43;;;;;;;6.18;1.73;;;;;;;12.42;79.60;99823.53;6076674;28;20033;-72
2023/03/30 06:41:38;;;;;;;4.53;1.70;;;;;;;12.42;78.85;99824.34;6099639;28;20087;-72
2023/03/30 06:44:34;;;;;;;4.13;1.70;;;;;;;12.62;77.92;99807.88;6083177;28;20298;-71
2023/03/30 06:47:29;;;;;;;4.20;1.50;;;;;;;12.76;78.18;99818.56;6083324;28;20276;-72
2023/03/30 06:50:25;;;;;;;5.18;1.30;;;;;;;13.05;75.96;99817.72;6089443;28;20040;-72
2023/03/30 06:53:21;;;;;;;4.72;1.95;;;;;;;13.22;75.08;99821.06;6076642;28;20076;-72
2023/03/30 06:56:17;;;;;;;5.57;1.50;;;;;;;13.35;74.64;99815.91;6084377;28;20048;-71
2023/03/30 06:59:35;;;;;;;5.43;1.30;;;;;;;13.45;74.48;99821.78;6086437;28;20033;-73
2023/03/30 07:02:31;;;;;;;5.38;1.83;;;;;;;13.30;74.80;99799.66;6082538;28;20276;-73
2023/03/30 07:05:27;;;;;;;2.72;1.35;;;;;;;13.46;74.31;99818.09;6111921;28;20041;-72
2023/03/30 07:08:23;;;;;;;5.65;1.55;;;;;;;13.44;74.57;99820.13;6093313;28;20029;-72
2023/03/30 07:11:18;;;;;;;4.72;1.77;;;;;;;13.43;74.48;99813.13;6079925;28;20036;-72
2023/03/30 07:14:13;;;;;;;8.07;1.87;;;;;;;13.46;73.94;99820.75;6088339;28;20596;-72
2023/03/30 07:17:09;;;;;;;3.20;1.90;;;;;;;13.71;73.15;99828.25;6096121;28;20025;-73
2023/03/30 07:20:07;;;;;;;5.15;1.75;;;;;;;13.74;72.22;99837.72;6093675;28;20094;-72
2023/03/30 07:23:02;;;;;;;5.82;1.50;;;;;;;13.87;72.14;99840.50;6086923;28;20104;-72
2023/03/30 07:25:57;;;;;;;7.25;2.00;;;;;;;13.91;72.43;99839.13;6089527;28;20062;-73
2023/03/30 07:28:55;;;;;;;6.73;1.60;;;;;;;14.07;70.79;99833.56;6094717;28;20040;-73
2023/03/30 07:31:50;;;;;;;6.90;1.73;;;;;;;14.08;71.21;99840.53;6079826;28;20120;-72
2023/03/30 07:34:46;;;;;;;3.50;1.60;;;;;;;14.11;71.27;99837.47;6074913;28;20040;-72
2023/03/30 07:37:41;;;;;;;4.03;1.42;;;;;;;14.16;70.84;99843.06;6074923;28;20462;-73
2023/03/30 07:40:37;;;;;;;8.25;1.70;;;;;;;14.32;69.67;99841.22;6079815;28;20084;-73
2023/03/30 07:43:32;;;;;;;4.23;1.30;;;;;;;14.14;70.72;99847.78;6077061;28;20030;-73
2023/03/30 07:46:27;;;;;;;5.77;1.40;;;;;;;14.15;71.06;99846.78;6075172;28;20875;-73
2023/03/30 07:49:23;;;;;;;4.97;1.90;;;;;;;14.18;71.91;99846.38;6083183;28;20052;-73
2023/03/30 07:52:18;;;;;;;4.00;1.70;;;;;;;14.21;70.99;99840.66;6074985;28;20040;-72
2023/03/30 07:55:13;;;;;;;5.87;1.90;;;;;;;14.09;71.97;99831.53;6078254;28;20121;-72
2023/03/30 07:58:09;;;;;;;4.78;1.70;;;;;;;14.26;71.72;99832.94;6074641;28;20672;-74
2023/03/30 08:01:05;;;;;;;3.85;1.27;;;;;;;14.36;71.36;99823.78;6079350;28;20090;-73
2023/03/30 08:04:01;;;;;;;3.55;1.33;;;;;;;14.38;71.59;99824.44;6073929;28;20036;-73
2023/03/30 08:06:56;;;;;;;9.23;1.75;;;;;;;14.66;70.73;99838.63;6079760;28;20029;-73
2023/03/30 08:09:51;;;;;;;5.13;1.33;;;;;;;14.71;70.27;99844.19;6073781;28;20048;-72
2023/03/30 08:12:47;;;;;;;5.00;1.53;;;;;;;14.84;69.80;99844.28;6084182;28;20272;-73
2023/03/30 08:15:42;;;;;;;3.83;1.67;;;;;;;14.92;69.27;99857.47;6074417;28;20038;-72
2023/03/30 08:18:40;;;;;;;4.23;1.43;;;;;;;14.81;69.90;99847.38;6086691;28;20040;-73
2023/03/30 08:21:35;;;;;;;3.70;1.40;;;;;;;14.82;69.94;99843.66;6094877;28;20041;-72
2023/03/30 08:24:31;;;;;;;4.68;1.40;;;;;;;14.92;69.82;99854.00;6074994;28;20037;-73
2023/03/30 08:27:26;;;;;;;2.50;1.10;;;;;;;15.10;69.16;99844.47;6075204;28;20043;-73
2023/03/30 08:30:21;;;;;;;5.50;1.60;;;;;;;15.09;69.11;99855.34;6091568;28;20279;-72
2023/03/30 08:33:17;;;;;;;5.95;1.73;;;;;;;15.22;68.62;99842.88;6079486;28;20425;-73
2023/03/30 08:36:12;;;;;;;4.17;1.60;;;;;;;15.19;69.17;99855.81;6076886;28;20116;-73
2023/03/30 08:39:07;;;;;;;4.30;1.58;;;;;;;15.28;68.85;99858.13;6075462;28;20031;-74
2023/03/30 08:42:24;;;;;;;5.27;1.63;;;;;;;15.26;68.94;99846.81;6083317;28;20053;-71
2023/03/30 08:45:19;;;;;;;6.05;1.73;;;;;;;15.35;68.98;99861.69;6073232;28;20436;-72
2023/03/30 08:48:22;;;;;;;5.47;1.63;;;;;;;15.67;67.86;99843.34;6073506;28;20033;-71
2023/03/30 08:51:29;;;;;;;4.85;1.27;;;;;;;15.73;66.68;99831.84;6076031;28;20489;-71
2023/03/30 08:54:25;;;;;;;4.38;1.33;;;;;;;15.69;68.53;99843.94;6073030;28;20033;-72
2023/03/30 08:57:39;;;;;;;5.30;2.00;;;;;;;15.62;68.76;99845.78;6073454;28;20025;-72
2023/03/30 09:00:48;;;;;;;4.30;1.52;;;;;;;15.62;68.59;99835.91;6084448;28;20060;-72
2023/03/30 09:03:59;;;;;;;4.85;1.85;;;;;;;16.31;67.69;99849.84;6070808;28;20524;-72
2023/03/30 09:06:59;;;;;;;6.13;1.60;;;;;;;16.26;67.45;99844.31;6094337;28;20032;-72
2023/03/30 09:09:56;;;;;;;5.75;2.10;;;;;;;16.53;65.30;99824.59;6073796;28;20421;-73
2023/03/30 09:12:55;;;;;;;6.82;1.88;;;;;;;16.83;64.10;99813.44;6073372;28;20381;-72
2023/03/30 09:16:01;;;;;;;10.30;2.03;;;;;;;16.42;63.84;99833.19;6071752;28;20037;-72
2023/03/30 09:18:58;;;;;;;5.68;2.08;;;;;;;16.36;64.04;99830.53;6075094;28;20029;-72
2023/03/30 09:21:54;;;;;;;6.35;1.73;;;;;;;16.20;64.94;99841.63;6073565;28;20116;-72
2023/03/30 09:24:50;;;;;;;15.55;1.70;;;;;;;16.17;64.47;99832.13;6102291;28;20481;-74
2023/03/30 09:27:55;;;;;;;7.57;2.00;;;;;;;16.15;65.15;99828.84;6089542;28;20052;-73
2023/03/30 09:31:03;;;;;;;4.38;1.73;;;;;;;16.06;65.47;99830.09;6098473;28;20056;-73
2023/03/30 09:34:02;;;;;;;6.45;2.40;;;;;;;16.19;64.95;99834.63;6095381;28;20075;-72
2023/03/30 09:37:05;;;;;;;6.75;1.70;;;;;;;16.25;65.11;99823.91;6074225;28;20029;-72
2023/03/30 09:40:17;;;;;;;4.80;1.80;;;;;;;16.12;64.89;99810.53;6083860;28;20032;-72
2023/03/30 09:43:16;;;;;;;4.72;1.65;;;;;;;16.36;64.64;99828.66;6091822;28;20120;-72
2023/03/30 09:46:13;;;;;;;3.78;1.45;;;;;;;16.43;64.72;99816.13;6059129;28;20049;-72
2023/03/30 09:49:13;;;;;;;5.15;1.55;;;;;;;16.54;64.47;99826.25;6072477;28;20044;-73
2023/03/30 09:52:19;;;;;;;5.60;1.63;;;;;;;16.60;65.02;99827.28;6072697;28;20068;-71
2023/03/30 09:55:20;;;;;;;5.00;1.67;;;;;;;16.57;63.58;99830.38;6076187;28;20393;-73
2023/03/30 09:58:25;;;;;;;6.00;1.95;;;;;;;16.23;64.56;99823.31;6077341;28;20478;-72
2023/03/30 10:01:23;;;;;;;5.82;1.67;;;;;;;16.03;64.42;99822.47;6077764;28;20394;-72
2023/03/30 10:04:18;;;;;;;10.25;1.75;;;;;;;15.97;65.94;99824.09;6087267;28;20040;-72
2023/03/30 10:07:21;;;;;;;3.97;1.30;;;;;;;15.88;65.76;99824.47;6071815;28;20474;-72
2023/03/30 10:10:19;;;;;;;6.60;1.65;;;;;;;15.85;65.74;99819.53;6071864;28;20030;-72
2023/03/30 10:13:16;;;;;;;5.32;1.50;;;;;;;15.66;66.32;99798.91;6072233;28;20103;-71
2023/03/30 10:16:23;;;;;;;4.90;1.52;;;;;;;15.45;66.14;99824.72;6061587;28;20466;-72
2023/03/30 10:19:20;;;;;;;4.75;1.55;;;;;;;15.37;66.59;99819.53;6072723;28;20043;-71
2023/03/30 10:22:18;;;;;;;3.47;1.73;;;;;;;15.22;66.37;99829.53;6071144;28;20033;-72
2023/03/30 10:25:20;;;;;;;3.47;1.20;;;;;;;14.93;69.91;99837.78;6072257;28;20057;-73
2023/03/30 10:28:25;;;;;;;4.13;1.25;;;;;;;14.55;74.28;99836.47;6071524;28;20026;-71
2023/03/30 10:31:21;;;;;;;2.97;1.30;;;;;;;14.27;76.80;99818.56;6073162;28;20078;-71
2023/03/30 10:34:27;;;;;;;4.53;1.27;;;;;;;14.27;79.35;99831.88;6080666;28;20037;-72
2023/03/30 10:37:31;;;;;;;4.40;1.23;;;;;;;14.53;79.51;99833.19;6108758;28;20063;-72
2023/03/30 10:40:32;;;;;;;3.65;1.60;;;;;;;14.76;77.72;99813.22;6090881;28;20053;-71
2023/03/30 10:43:31;;;;;;;8.13;1.70;;;;;;;14.74;76.98;99812.59;6075418;28;20030;-71
2023/03/30 10:46:28;;;;;;;4.78;1.73;;;;;;;14.54;77.47;99792.16;6083951;28;20498;-71
2023/03/30 10:49:38;;;;;;;5.90;1.80;;;;;;;14.52;78.88;99795.00;6078136;28;20087;-72
2023/03/30 10:52:54;;;;;;;8.45;2.58;;;;;;;14.37;79.81;99812.13;6082083;28;20727;-72
2023/03/30 10:55:58;;;;;;;5.40;2.30;;;;;;;13.98;83.19;99833.84;6064239;28;20029;-72
2023/03/30 10:59:13;;;;;;;7.55;2.33;;;;;;;13.51;87.54;99859.16;6076159;28;20033;-71
2023/03/30 11:02:38;;;;;;;5.22;2.40;;;;;;;13.23;89.79;99863.50;6092777;28;20079;-72
2023/03/30 11:05:36;;;;;;;6.53;3.53;;;;;;;13.11;91.16;99856.97;6064311;28;20759;-71
2023/03/30 11:08:35;;;;;;;6.53;2.10;;;;;;;13.17;89.85;99856.25;6076133;28;20435;-72
2023/03/30 11:11:34;;;;;;;6.78;2.08;;;;;;;13.22;92.35;99837.88;6094259;28;20056;-72
2023/03/30 11:14:49;;;;;;;5.65;2.80;;;;;;;13.48;92.66;99886.16;6079715;28;20569;-73
2023/03/30 11:18:09;;;;;;;6.80;2.20;;;;;;;13.27;89.91;99890.56;6058131;28;20041;-72
2023/03/30 11:21:19;;;;;;;3.10;1.33;;;;;;;12.89;86.96;99951.81;6074417;28;20044;-70
2023/03/30 11:24:20;;;;;;;1.25;0.82;;;;;;;12.15;90.44;99925.91;6074893;28;20041;-71
2023/03/30 11:27:21;;;;;;;2.58;0.77;;;;;;;11.40;97.67;99919.44;6076358;28;20470;-71
2023/03/30 11:30:21;;;;;;;2.47;0.88;;;;;;;11.12;100.00;99895.13;6082547;28;20065;-71
2023/03/30 11:33:35;;;;;;;4.20;0.70;;;;;;;11.06;100.00;99885.16;6098465;28;20062;-72
2023/03/30 11:36:44;;;;;;;2.28;0.93;;;;;;;11.11;100.00;99866.13;6090294;28;20040;-72
2023/03/30 11:39:45;;;;;;;2.05;1.00;;;;;;;11.72;100.00;99874.19;6057902;28;20095;-71
2023/03/30 11:42:41;;;;;;;3.00;1.13;;;;;;;12.11;100.00;99854.69;6074649;28;20043;-72
2023/03/30 11:45:58;;;;;;;2.17;0.90;;;;;;;12.66;100.00;99871.22;6094753;28;20025;-72
2023/03/30 11:49:17;;;;;;;5.95;0.80;;;;;;;12.76;96.59;99871.78;6066787;28;20037;-72
2023/03/30 11:52:23;;;;;;;4.65;0.70;;;;;;;12.61;93.32;99860.25;6103580;28;20018;-72
2023/03/30 11:55:42;;;;;;;4.95;1.15;;;;;;;12.56;90.81;99862.63;6091141;28;20386;-72
2023/03/30 11:58:47;;;;;;;9.10;1.38;;;;;;;12.42;89.41;99855.44;6075150;28;20021;-71
2023/03/30 12:02:12;;;;;;;4.70;0.90;;;;;;;12.86;89.46;99875.00;6089809;28;20087;-72
2023/03/30 12:05:20;;;;;;;2.08;1.00;;;;;;;13.63;86.54;99863.00;6084109;28;20048;-72
2023/03/30 12:08:46;;;;;;;4.78;1.30;;;;;;;14.32;83.69;99865.22;6090518;28;20474;-72
2023/03/30 12:11:51;;;;;;;4.05;1.35;;;;;;;14.31;80.10;99861.69;6055206;28;20033;-73
2023/03/30 12:15:04;;;;;;;5.50;1.13;;;;;;;14.00;79.32;99848.66;6071851;28;20038;-73
2023/03/30 12:18:23;;;;;;;2.55;1.02;;;;;;;14.07;80.91;99865.56;6089073;28;20029;-73
2023/03/30 12:21:45;;;;;;;4.95;1.75;;;;;;;14.60;77.96;99860.72;6085934;28;20064;-73
2023/03/30 12:24:59;;;;;;;4.85;1.08;;;;;;;14.82;76.67;99865.00;6086887;28;20029;-73
2023/03/30 12:27:57;;;;;;;5.03;1.42;;;;;;;14.96;75.76;99847.25;6090919;28;20037;-73
2023/03/30 12:30:57;;;;;;;3.67;1.30;;;;;;;15.05;73.80;99843.41;6074964;28;20436;-74
2023/03/30 12:34:05;;;;;;;5.35;1.45;;;;;;;15.20;73.75;99831.56;6073422;28;20034;-74
2023/03/30 12:37:19;;;;;;;5.32;1.40;;;;;;;15.74;72.64;99847.66;6082257;28;20068;-72
2023/03/30 12:40:24;;;;;;;6.15;1.33;;;;;;;15.94;71.75;99837.03;6097230;28;20481;-73
2023/03/30 12:43:33;;;;;;;10.02;1.92;;;;;;;15.87;69.81;99828.19;6096554;28;20025;-73
2023/03/30 12:46:43;;;;;;;5.93;1.55;;;;;;;15.64;70.24;99827.69;6088654;28;20039;-73
2023/03/30 12:50:07;;;;;;;5.68;1.90;;;;;;;15.57;70.63;99834.88;6073805;28;20036;-72
2023/03/30 12:53:45;;;;;;;4.40;1.52;;;;;;;15.31;70.01;99844.38;6055879;28;20036;-73
2023/03/30 12:56:56;;;;;;;3.67;1.55;;;;;;;14.85;68.62;99857.44;6078020;28;20029;-73
2023/03/30 13:00:15;;;;;;;6.35;1.30;;;;;;;14.59;69.32;99840.41;6080036;28;20029;-74
2023/03/30 13:03:24;;;;;;;3.45;1.40;;;;;;;14.59;69.10;99859.09;6083007;28;20063;-73
2023/03/30 13:06:34;;;;;;;2.67;1.15;;;;;;;14.48;69.42;99846.28;6062027;28;20033;-74
2023/03/30 13:09:33;;;;;;;6.70;1.38;;;;;;;14.53;69.65;99854.53;6097654;28;20091;-74
2023/03/30 13:12:38;;;;;;;7.65;1.40;;;;;;;14.59;69.65;99869.78;6097499;28;20025;-75
2023/03/30 13:15:53;;;;;;;7.03;1.67;;;;;;;14.64;68.74;99846.00;6084176;28;20045;-73
2023/03/30 13:18:53;;;;;;;3.78;1.20;;;;;;;14.79;69.24;99860.06;6091265;28;20087;-73
2023/03/30 13:21:55;;;;;;;5.57;1.17;;;;;;;14.80;68.40;99861.72;6077867;28;20116;-72
2023/03/30 13:24:56;;;;;;;5.07;1.27;;;;;;;14.79;68.50;99849.38;6072766;28;20072;-74
2023/03/30 13:27:56;;;;;;;6.65;1.38;;;;;;;14.71;67.66;99860.19;6081847;28;20079;-72
2023/03/30 13:30:53;;;;;;;5.57;1.30;;;;;;;14.67;67.38;99850.94;6073098;28;20102;-72
2023/03/30 13:33:58;;;;;;;7.18;1.75;;;;;;;14.68;68.85;99852.56;6072127;28;20076;-73
2023/03/30 13:37:12;;;;;;;5.75;1.23;;;;;;;14.87;66.95;99852.72;6093930;28;20028;-71
2023/03/30 13:40:18;;;;;;;4.07;1.27;;;;;;;15.00;67.77;99865.34;6061412;28;20093;-72
2023/03/30 13:43:32;;;;;;;4.57;1.10;;;;;;;15.00;65.37;99862.66;6073037;28;20461;-72
2023/03/30 13:46:30;;;;;;;8.50;1.25;;;;;;;15.06;65.08;99871.75;6082229;28;20037;-73
2023/03/30 13:49:36;;;;;;;4.22;1.10;;;;;;;14.81;64.14;99863.38;6095364;28;20040;-73
2023/03/30 13:52:35;;;;;;;3.67;0.75;;;;;;;14.58;62.00;99870.78;6055187;28;20041;-74
2023/03/30 13:55:34;;;;;;;1.48;0.65;;;;;;;14.35;61.82;99873.63;6072159;28;20520;-73
2023/03/30 13:58:32;;;;;;;4.25;0.80;;;;;;;14.35;63.08;99881.63;6093614;28;20036;-73
2023/03/30 14:01:27;;;;;;;3.20;0.70;;;;;;;13.96;63.75;99868.72;6095215;28;20103;-73
2023/03/30 14:04:28;;;;;;;4.27;0.80;;;;;;;14.33;63.59;99873.00;6071864;28;20041;-72
2023/03/30 14:07:24;;;;;;;3.58;0.63;;;;;;;14.88;61.39;99856.22;6072154;28;20029;-72